sensor_id;sensor_type;location;lat;lon;timestamp;temperature;humidity
6609;DHT22;61468;48.79282455;9.06262200;2022-08-19T00:00:53;24.10;12.40
6609;DHT22;61468;48.79282455;9.06262200;2022-08-19T00:03:37;24.10;13.40
6609;DHT22;61468;48.79282455;9.06262200;2022-08-19T00:06:21;24.10;12.90
6609;DHT22;61468;48.79282455;9.06262200;2022-08-19T00:09:06;24.00;13.50
6609;DHT22;61468;48.79282455;9.06262200;2022-08-19T00:11:52;24.00;12.80
6609;DHT22;61468;48.79282455;9.06262200;2022-08-19T00:14:37;24.00;12.50
6609;DHT22;61468;48.79282455;9.06262200;2022-08-19T00:17:22;24.00;12.50
6609;DHT22;61468;48.79282455;9.06262200;2022-08-19T00:20:06;24.00;24.50
6609;DHT22;61468;48.79282455;9.06262200;2022-08-19T00:22:51;24.00;13.40
6609;DHT22;61468;48.79282455;9.06262200;2022-08-19T00:25:36;24.00;13.10
6609;DHT22;61468;48.79282455;9.06262200;2022-08-19T00:28:20;24.00;13.90
6609;DHT22;61468;48.79282455;9.06262200;2022-08-19T00:31:06;24.00;13.00
6609;DHT22;61468;48.79282455;9.06262200;2022-08-19T00:33:50;24.00;12.90
6609;DHT22;61468;48.79282455;9.06262200;2022-08-19T00:36:35;24.00;13.30
6609;DHT22;61468;48.79282455;9.06262200;2022-08-19T00:39:19;24.00;13.60
6609;DHT22;61468;48.79282455;9.06262200;2022-08-19T00:42:03;24.00;13.60
6609;DHT22;61468;48.79282455;9.06262200;2022-08-19T00:44:47;24.00;13.40
6609;DHT22;61468;48.79282455;9.06262200;2022-08-19T00:47:31;24.00;15.00
6609;DHT22;61468;48.79282455;9.06262200;2022-08-19T00:50:17;24.00;14.50
6609;DHT22;61468;48.79282455;9.06262200;2022-08-19T00:53:02;24.00;14.60
6609;DHT22;61468;48.79282455;9.06262200;2022-08-19T00:55:50;24.00;14.30
6609;DHT22;61468;48.79282455;9.06262200;2022-08-19T00:58:36;24.00;14.20
6609;DHT22;61468;48.79282455;9.06262200;2022-08-19T01:01:21;24.00;14.80
6609;DHT22;61468;48.79282455;9.06262200;2022-08-19T01:04:05;24.00;16.00
6609;DHT22;61468;48.79282455;9.06262200;2022-08-19T01:06:49;24.00;15.60
6609;DHT22;61468;48.79282455;9.06262200;2022-08-19T01:09:33;23.90;15.50
6609;DHT22;61468;48.79282455;9.06262200;2022-08-19T01:12:18;24.00;16.00
6609;DHT22;61468;48.79282455;9.06262200;2022-08-19T01:15:03;24.00;14.80
6609;DHT22;61468;48.79282455;9.06262200;2022-08-19T01:17:48;24.00;15.40
6609;DHT22;61468;48.79282455;9.06262200;2022-08-19T01:20:33;24.00;26.50
6609;DHT22;61468;48.79282455;9.06262200;2022-08-19T01:23:18;24.00;14.90
6609;DHT22;61468;48.79282455;9.06262200;2022-08-19T01:26:02;24.00;16.10
6609;DHT22;61468;48.79282455;9.06262200;2022-08-19T01:28:48;24.00;16.60
6609;DHT22;61468;48.79282455;9.06262200;2022-08-19T01:31:34;24.00;16.80
6609;DHT22;61468;48.79282455;9.06262200;2022-08-19T01:34:19;24.00;16.50
6609;DHT22;61468;48.79282455;9.06262200;2022-08-19T01:37:09;23.90;16.70
6609;DHT22;61468;48.79282455;9.06262200;2022-08-19T01:39:55;24.00;16.80
6609;DHT22;61468;48.79282455;9.06262200;2022-08-19T01:42:39;23.90;17.40
6609;DHT22;61468;48.79282455;9.06262200;2022-08-19T01:45:26;24.00;17.40
6609;DHT22;61468;48.79282455;9.06262200;2022-08-19T01:48:10;23.90;20.00
6609;DHT22;61468;48.79282455;9.06262200;2022-08-19T01:50:54;24.00;20.40
6609;DHT22;61468;48.79282455;9.06262200;2022-08-19T01:53:40;23.90;19.70
6609;DHT22;61468;48.79282455;9.06262200;2022-08-19T01:56:25;23.90;19.80
6609;DHT22;61468;48.79282455;9.06262200;2022-08-19T01:59:16;23.90;21.20
6609;DHT22;61468;48.79282455;9.06262200;2022-08-19T02:02:02;23.80;22.50
6609;DHT22;61468;48.79282455;9.06262200;2022-08-19T02:04:47;23.90;23.70
6609;DHT22;61468;48.79282455;9.06262200;2022-08-19T02:07:31;23.90;23.80
6609;DHT22;61468;48.79282455;9.06262200;2022-08-19T02:10:19;23.80;24.00
6609;DHT22;61468;48.79282455;9.06262200;2022-08-19T02:13:04;23.90;24.70
6609;DHT22;61468;48.79282455;9.06262200;2022-08-19T02:15:48;23.90;24.80
6609;DHT22;61468;48.79282455;9.06262200;2022-08-19T02:18:33;23.90;25.50
6609;DHT22;61468;48.79282455;9.06262200;2022-08-19T02:21:19;23.80;26.70
6609;DHT22;61468;48.79282455;9.06262200;2022-08-19T02:24:04;23.90;26.60
6609;DHT22;61468;48.79282455;9.06262200;2022-08-19T02:26:48;23.80;27.80
6609;DHT22;61468;48.79282455;9.06262200;2022-08-19T02:29:32;23.80;27.40
6609;DHT22;61468;48.79282455;9.06262200;2022-08-19T02:32:17;23.80;29.00
6609;DHT22;61468;48.79282455;9.06262200;2022-08-19T02:35:03;23.80;30.30
6609;DHT22;61468;48.79282455;9.06262200;2022-08-19T02:37:48;23.80;31.30
6609;DHT22;61468;48.79282455;9.06262200;2022-08-19T02:40:53;23.80;31.90
6609;DHT22;61468;48.79282455;9.06262200;2022-08-19T02:43:38;23.70;34.10
6609;DHT22;61468;48.79282455;9.06262200;2022-08-19T02:46:26;23.70;36.90
6609;DHT22;61468;48.79282455;9.06262200;2022-08-19T02:49:11;23.70;39.70
6609;DHT22;61468;48.79282455;9.06262200;2022-08-19T02:51:54;23.70;40.90
6609;DHT22;61468;48.79282455;9.06262200;2022-08-19T02:54:39;23.70;41.20
6609;DHT22;61468;48.79282455;9.06262200;2022-08-19T02:57:23;23.70;40.80
6609;DHT22;61468;48.79282455;9.06262200;2022-08-19T03:00:08;23.70;41.50
6609;DHT22;61468;48.79282455;9.06262200;2022-08-19T03:02:56;23.70;42.50
6609;DHT22;61468;48.79282455;9.06262200;2022-08-19T03:05:40;23.70;45.30
6609;DHT22;61468;48.79282455;9.06262200;2022-08-19T03:08:24;23.70;47.00
6609;DHT22;61468;48.79282455;9.06262200;2022-08-19T03:11:14;23.70;46.30
6609;DHT22;61468;48.79282455;9.06262200;2022-08-19T03:13:59;23.70;47.80
6609;DHT22;61468;48.79282455;9.06262200;2022-08-19T03:16:49;23.70;49.20
6609;DHT22;61468;48.79282455;9.06262200;2022-08-19T03:19:33;23.70;49.60
6609;DHT22;61468;48.79282455;9.06262200;2022-08-19T03:22:18;23.70;50.20
6609;DHT22;61468;48.79282455;9.06262200;2022-08-19T03:25:03;23.70;51.10
6609;DHT22;61468;48.79282455;9.06262200;2022-08-19T03:27:47;23.70;53.60
6609;DHT22;61468;48.79282455;9.06262200;2022-08-19T03:30:33;23.80;53.70
6609;DHT22;61468;48.79282455;9.06262200;2022-08-19T03:33:17;23.80;54.10
6609;DHT22;61468;48.79282455;9.06262200;2022-08-19T03:36:11;23.80;53.40
6609;DHT22;61468;48.79282455;9.06262200;2022-08-19T03:38:59;23.80;55.40
6609;DHT22;61468;48.79282455;9.06262200;2022-08-19T03:41:45;23.80;56.90
6609;DHT22;61468;48.79282455;9.06262200;2022-08-19T03:44:31;23.70;58.30
6609;DHT22;61468;48.79282455;9.06262200;2022-08-19T03:47:16;23.70;56.90
6609;DHT22;61468;48.79282455;9.06262200;2022-08-19T03:50:00;23.70;58.40
6609;DHT22;61468;48.79282455;9.06262200;2022-08-19T03:52:49;23.70;60.30
6609;DHT22;61468;48.79282455;9.06262200;2022-08-19T03:55:40;23.60;61.80
6609;DHT22;61468;48.79282455;9.06262200;2022-08-19T03:58:27;23.70;63.70
6609;DHT22;61468;48.79282455;9.06262200;2022-08-19T04:01:16;23.70;60.50
6609;DHT22;61468;48.79282455;9.06262200;2022-08-19T04:04:01;23.70;61.90
6609;DHT22;61468;48.79282455;9.06262200;2022-08-19T04:06:46;23.70;62.60
6609;DHT22;61468;48.79282455;9.06262200;2022-08-19T04:09:32;23.70;64.50
6609;DHT22;61468;48.79282455;9.06262200;2022-08-19T04:12:17;23.70;63.80
6609;DHT22;61468;48.79282455;9.06262200;2022-08-19T04:15:01;23.70;61.90
6609;DHT22;61468;48.79282455;9.06262200;2022-08-19T04:17:45;23.70;62.30
6609;DHT22;61468;48.79282455;9.06262200;2022-08-19T04:20:30;23.60;63.70
6609;DHT22;61468;48.79282455;9.06262200;2022-08-19T04:23:14;23.60;66.00
6609;DHT22;61468;48.79282455;9.06262200;2022-08-19T04:25:58;23.60;66.10
6609;DHT22;61468;48.79282455;9.06262200;2022-08-19T04:28:43;23.60;84.00
6609;DHT22;61468;48.79282455;9.06262200;2022-08-19T04:31:29;23.60;67.50
6609;DHT22;61468;48.79282455;9.06262200;2022-08-19T04:34:16;23.60;68.60
6609;DHT22;61468;48.79282455;9.06262200;2022-08-19T04:37:05;23.50;69.70
6609;DHT22;61468;48.79282455;9.06262200;2022-08-19T04:39:56;23.50;72.40
6609;DHT22;61468;48.79282455;9.06262200;2022-08-19T04:42:59;23.60;72.00
6609;DHT22;61468;48.79282455;9.06262200;2022-08-19T04:45:47;23.50;73.80
6609;DHT22;61468;48.79282455;9.06262200;2022-08-19T04:48:31;23.50;75.00
6609;DHT22;61468;48.79282455;9.06262200;2022-08-19T04:51:16;23.60;74.90
6609;DHT22;61468;48.79282455;9.06262200;2022-08-19T04:54:02;23.50;75.90
6609;DHT22;61468;48.79282455;9.06262200;2022-08-19T04:56:47;23.50;77.20
6609;DHT22;61468;48.79282455;9.06262200;2022-08-19T04:59:34;23.50;80.70
6609;DHT22;61468;48.79282455;9.06262200;2022-08-19T05:02:18;23.50;81.80
6609;DHT22;61468;48.79282455;9.06262200;2022-08-19T05:05:03;23.40;89.60
6609;DHT22;61468;48.79282455;9.06262200;2022-08-19T05:07:47;23.40;91.80
6609;DHT22;61468;48.79282455;9.06262200;2022-08-19T05:10:31;23.40;92.70
6609;DHT22;61468;48.79282455;9.06262200;2022-08-19T05:13:16;23.40;94.60
6609;DHT22;61468;48.79282455;9.06262200;2022-08-19T05:16:00;23.40;96.30
6609;DHT22;61468;48.79282455;9.06262200;2022-08-19T05:18:45;23.40;99.10
6609;DHT22;61468;48.79282455;9.06262200;2022-08-19T05:21:48;23.50;98.40
6609;DHT22;61468;48.79282455;9.06262200;2022-08-19T05:24:51;23.50;96.90
6609;DHT22;61468;48.79282455;9.06262200;2022-08-19T05:27:35;23.40;98.80
6609;DHT22;61468;48.79282455;9.06262200;2022-08-19T05:30:19;23.40;99.90
6609;DHT22;61468;48.79282455;9.06262200;2022-08-19T05:33:03;23.50;99.90
6609;DHT22;61468;48.79282455;9.06262200;2022-08-19T05:35:48;23.40;99.90
6609;DHT22;61468;48.79282455;9.06262200;2022-08-19T05:38:34;23.50;99.90
6609;DHT22;61468;48.79282455;9.06262200;2022-08-19T05:41:21;23.50;99.90
6609;DHT22;61468;48.79282455;9.06262200;2022-08-19T05:44:07;23.50;99.90
6609;DHT22;61468;48.79282455;9.06262200;2022-08-19T05:46:53;23.50;99.90
6609;DHT22;61468;48.79282455;9.06262200;2022-08-19T05:49:38;23.50;99.90
6609;DHT22;61468;48.79282455;9.06262200;2022-08-19T05:52:22;23.50;99.90
6609;DHT22;61468;48.79282455;9.06262200;2022-08-19T05:55:06;23.40;99.90
6609;DHT22;61468;48.79282455;9.06262200;2022-08-19T05:57:50;23.40;99.90
6609;DHT22;61468;48.79282455;9.06262200;2022-08-19T06:00:36;23.40;99.90
6609;DHT22;61468;48.79282455;9.06262200;2022-08-19T06:03:20;23.40;99.90
6609;DHT22;61468;48.79282455;9.06262200;2022-08-19T06:06:05;23.40;99.90
6609;DHT22;61468;48.79282455;9.06262200;2022-08-19T06:08:50;23.40;99.90
6609;DHT22;61468;48.79282455;9.06262200;2022-08-19T06:11:37;23.40;99.90
6609;DHT22;61468;48.79282455;9.06262200;2022-08-19T06:14:25;23.40;99.90
6609;DHT22;61468;48.79282455;9.06262200;2022-08-19T06:17:09;23.40;99.90
6609;DHT22;61468;48.79282455;9.06262200;2022-08-19T06:19:53;23.40;99.90
6609;DHT22;61468;48.79282455;9.06262200;2022-08-19T06:22:39;23.40;99.90
6609;DHT22;61468;48.79282455;9.06262200;2022-08-19T06:25:23;23.50;99.90
6609;DHT22;61468;48.79282455;9.06262200;2022-08-19T06:28:07;23.40;99.90
6609;DHT22;61468;48.79282455;9.06262200;2022-08-19T06:30:51;23.30;99.90
6609;DHT22;61468;48.79282455;9.06262200;2022-08-19T06:33:36;23.30;99.90
6609;DHT22;61468;48.79282455;9.06262200;2022-08-19T06:36:30;23.30;99.90
6609;DHT22;61468;48.79282455;9.06262200;2022-08-19T06:39:20;23.30;99.90
6609;DHT22;61468;48.79282455;9.06262200;2022-08-19T06:42:06;23.30;99.90
6609;DHT22;61468;48.79282455;9.06262200;2022-08-19T06:44:52;23.30;99.90
6609;DHT22;61468;48.79282455;9.06262200;2022-08-19T06:47:36;23.30;99.90
6609;DHT22;61468;48.79282455;9.06262200;2022-08-19T06:50:20;23.40;99.90
6609;DHT22;61468;48.79282455;9.06262200;2022-08-19T06:53:04;23.40;99.90
6609;DHT22;61468;48.79282455;9.06262200;2022-08-19T06:55:49;23.40;99.90
6609;DHT22;61468;48.79282455;9.06262200;2022-08-19T06:58:41;23.40;99.90
6609;DHT22;61468;48.79282455;9.06262200;2022-08-19T07:01:25;23.40;99.90
6609;DHT22;61468;48.79282455;9.06262200;2022-08-19T07:04:10;23.40;99.90
6609;DHT22;61468;48.79282455;9.06262200;2022-08-19T07:06:59;23.40;99.90
6609;DHT22;61468;48.79282455;9.06262200;2022-08-19T07:09:45;23.40;99.90
6609;DHT22;61468;48.79282455;9.06262200;2022-08-19T07:12:30;23.50;99.90
6609;DHT22;61468;48.79282455;9.06262200;2022-08-19T07:15:16;23.50;99.90
6609;DHT22;61468;48.79282455;9.06262200;2022-08-19T07:18:00;23.40;99.90
6609;DHT22;61468;48.79282455;9.06262200;2022-08-19T07:20:44;23.40;99.90
6609;DHT22;61468;48.79282455;9.06262200;2022-08-19T07:23:28;23.40;99.90
6609;DHT22;61468;48.79282455;9.06262200;2022-08-19T07:26:16;23.50;99.90
6609;DHT22;61468;48.79282455;9.06262200;2022-08-19T07:29:00;23.40;99.90
6609;DHT22;61468;48.79282455;9.06262200;2022-08-19T07:31:45;23.40;99.90
6609;DHT22;61468;48.79282455;9.06262200;2022-08-19T07:34:30;23.40;99.90
6609;DHT22;61468;48.79282455;9.06262200;2022-08-19T07:37:14;23.40;99.90
6609;DHT22;61468;48.79282455;9.06262200;2022-08-19T07:39:59;23.30;99.90
6609;DHT22;61468;48.79282455;9.06262200;2022-08-19T07:42:43;23.30;99.90
6609;DHT22;61468;48.79282455;9.06262200;2022-08-19T07:45:28;23.30;99.90
6609;DHT22;61468;48.79282455;9.06262200;2022-08-19T07:48:13;23.40;99.90
6609;DHT22;61468;48.79282455;9.06262200;2022-08-19T07:51:00;23.30;99.90
6609;DHT22;61468;48.79282455;9.06262200;2022-08-19T07:53:48;23.30;99.90
6609;DHT22;61468;48.79282455;9.06262200;2022-08-19T07:56:34;23.40;99.90
6609;DHT22;61468;48.79282455;9.06262200;2022-08-19T07:59:19;23.40;99.90
6609;DHT22;61468;48.79282455;9.06262200;2022-08-19T08:02:04;23.40;99.90
6609;DHT22;61468;48.79282455;9.06262200;2022-08-19T08:04:48;23.40;99.90
6609;DHT22;61468;48.79282455;9.06262200;2022-08-19T08:07:51;23.40;99.90
6609;DHT22;61468;48.79282455;9.06262200;2022-08-19T08:10:54;23.40;99.90
6609;DHT22;61468;48.79282455;9.06262200;2022-08-19T08:13:39;23.40;99.90
6609;DHT22;61468;48.79282455;9.06262200;2022-08-19T08:16:25;23.40;99.90
6609;DHT22;61468;48.79282455;9.06262200;2022-08-19T08:19:14;23.40;99.90
6609;DHT22;61468;48.79282455;9.06262200;2022-08-19T08:22:00;23.40;99.90
6609;DHT22;61468;48.79282455;9.06262200;2022-08-19T08:24:44;23.40;99.90
6609;DHT22;61468;48.79282455;9.06262200;2022-08-19T08:27:28;23.40;99.90
6609;DHT22;61468;48.79282455;9.06262200;2022-08-19T08:30:23;23.40;99.90
6609;DHT22;61468;48.79282455;9.06262200;2022-08-19T08:33:08;23.40;99.90
6609;DHT22;61468;48.79282455;9.06262200;2022-08-19T08:35:52;23.40;99.90
6609;DHT22;61468;48.79282455;9.06262200;2022-08-19T08:38:37;23.40;99.90
6609;DHT22;61468;48.79282455;9.06262200;2022-08-19T08:41:25;23.40;99.90
6609;DHT22;61468;48.79282455;9.06262200;2022-08-19T08:44:20;23.40;99.90
6609;DHT22;61468;48.79282455;9.06262200;2022-08-19T08:47:10;23.30;99.90
6609;DHT22;61468;48.79282455;9.06262200;2022-08-19T08:50:05;23.30;99.90
6609;DHT22;61468;48.79282455;9.06262200;2022-08-19T08:52:53;23.40;99.90
6609;DHT22;61468;48.79282455;9.06262200;2022-08-19T08:55:40;23.40;99.90
6609;DHT22;61468;48.79282455;9.06262200;2022-08-19T08:58:36;23.40;99.90
6609;DHT22;61468;48.79282455;9.06262200;2022-08-19T09:01:26;23.40;99.90
6609;DHT22;61468;48.79282455;9.06262200;2022-08-19T09:04:12;23.40;99.90
6609;DHT22;61468;48.79282455;9.06262200;2022-08-19T09:07:19;23.40;99.90
6609;DHT22;61468;48.79282455;9.06262200;2022-08-19T09:16:06;23.40;99.90
6609;DHT22;61468;48.79282455;9.06262200;2022-08-19T09:18:52;23.40;99.90
6609;DHT22;61468;48.79282455;9.06262200;2022-08-19T09:21:37;23.40;99.90
6609;DHT22;61468;48.79282455;9.06262200;2022-08-19T09:24:22;23.40;99.90
6609;DHT22;61468;48.79282455;9.06262200;2022-08-19T09:27:06;23.40;99.90
6609;DHT22;61468;48.79282455;9.06262200;2022-08-19T09:29:51;23.40;99.90
6609;DHT22;61468;48.79282455;9.06262200;2022-08-19T09:32:35;23.50;99.90
6609;DHT22;61468;48.79282455;9.06262200;2022-08-19T09:35:25;23.50;99.90
6609;DHT22;61468;48.79282455;9.06262200;2022-08-19T09:38:09;23.50;99.90
6609;DHT22;61468;48.79282455;9.06262200;2022-08-19T09:40:53;23.50;99.90
6609;DHT22;61468;48.79282455;9.06262200;2022-08-19T09:43:37;23.50;99.90
6609;DHT22;61468;48.79282455;9.06262200;2022-08-19T09:46:24;23.50;99.90
6609;DHT22;61468;48.79282455;9.06262200;2022-08-19T09:49:08;23.60;99.90
6609;DHT22;61468;48.79282455;9.06262200;2022-08-19T09:51:52;23.50;99.90
6609;DHT22;61468;48.79282455;9.06262200;2022-08-19T09:54:40;23.50;99.90
6609;DHT22;61468;48.79282455;9.06262200;2022-08-19T09:57:24;23.50;99.90
6609;DHT22;61468;48.79282455;9.06262200;2022-08-19T10:00:08;23.50;99.90
6609;DHT22;61468;48.79282455;9.06262200;2022-08-19T10:02:53;23.50;99.90
6609;DHT22;61468;48.79282455;9.06262200;2022-08-19T10:05:37;23.50;99.90
6609;DHT22;61468;48.79282455;9.06262200;2022-08-19T10:08:36;23.50;99.90
6609;DHT22;61468;48.79282455;9.06262200;2022-08-19T10:11:21;23.50;99.90
6609;DHT22;61468;48.79282455;9.06262200;2022-08-19T10:14:05;23.50;99.90
6609;DHT22;61468;48.79282455;9.06262200;2022-08-19T10:16:50;23.50;99.90
6609;DHT22;61468;48.79282455;9.06262200;2022-08-19T10:19:35;23.50;99.90
6609;DHT22;61468;48.79282455;9.06262200;2022-08-19T10:22:20;23.50;99.90
6609;DHT22;61468;48.79282455;9.06262200;2022-08-19T10:25:05;23.50;99.90
6609;DHT22;61468;48.79282455;9.06262200;2022-08-19T10:27:50;23.50;99.90
6609;DHT22;61468;48.79282455;9.06262200;2022-08-19T10:30:39;23.50;99.90
6609;DHT22;61468;48.79282455;9.06262200;2022-08-19T10:33:23;23.50;99.90
6609;DHT22;61468;48.79282455;9.06262200;2022-08-19T10:36:12;23.50;99.90
6609;DHT22;61468;48.79282455;9.06262200;2022-08-19T10:39:02;23.50;99.90
6609;DHT22;61468;48.79282455;9.06262200;2022-08-19T10:41:47;23.50;99.90
6609;DHT22;61468;48.79282455;9.06262200;2022-08-19T10:44:32;23.50;99.90
6609;DHT22;61468;48.79282455;9.06262200;2022-08-19T10:47:19;23.50;99.90
6609;DHT22;61468;48.79282455;9.06262200;2022-08-19T10:50:03;23.50;99.90
6609;DHT22;61468;48.79282455;9.06262200;2022-08-19T10:53:07;23.60;99.90
6609;DHT22;61468;48.79282455;9.06262200;2022-08-19T10:55:52;23.60;99.90
6609;DHT22;61468;48.79282455;9.06262200;2022-08-19T10:58:55;23.60;99.90
6609;DHT22;61468;48.79282455;9.06262200;2022-08-19T11:01:43;23.70;99.90
6609;DHT22;61468;48.79282455;9.06262200;2022-08-19T11:04:27;23.70;99.90
6609;DHT22;61468;48.79282455;9.06262200;2022-08-19T11:07:11;23.70;99.90
6609;DHT22;61468;48.79282455;9.06262200;2022-08-19T11:09:56;23.70;99.90
6609;DHT22;61468;48.79282455;9.06262200;2022-08-19T11:12:40;23.70;99.90
6609;DHT22;61468;48.79282455;9.06262200;2022-08-19T11:15:25;23.60;99.90
6609;DHT22;61468;48.79282455;9.06262200;2022-08-19T11:18:12;23.70;99.90
6609;DHT22;61468;48.79282455;9.06262200;2022-08-19T11:23:57;23.70;99.90
6609;DHT22;61468;48.79282455;9.06262200;2022-08-19T11:26:43;23.70;99.90
6609;DHT22;61468;48.79282455;9.06262200;2022-08-19T11:29:28;23.70;99.90
6609;DHT22;61468;48.79282455;9.06262200;2022-08-19T11:32:12;23.70;99.90
6609;DHT22;61468;48.79282455;9.06262200;2022-08-19T11:34:57;23.80;99.90
6609;DHT22;61468;48.79282455;9.06262200;2022-08-19T11:37:41;23.80;99.80
6609;DHT22;61468;48.79282455;9.06262200;2022-08-19T11:40:24;23.80;98.50
6609;DHT22;61468;48.79282455;9.06262200;2022-08-19T11:43:08;23.80;96.60
6609;DHT22;61468;48.79282455;9.06262200;2022-08-19T11:45:54;23.80;96.00
6609;DHT22;61468;48.79282455;9.06262200;2022-08-19T11:48:39;23.80;97.10
6609;DHT22;61468;48.79282455;9.06262200;2022-08-19T11:51:24;23.80;95.90
6609;DHT22;61468;48.79282455;9.06262200;2022-08-19T11:54:09;23.80;94.50
6609;DHT22;61468;48.79282455;9.06262200;2022-08-19T11:56:53;23.80;93.30
6609;DHT22;61468;48.79282455;9.06262200;2022-08-19T11:59:37;23.80;89.10
6609;DHT22;61468;48.79282455;9.06262200;2022-08-19T12:02:21;23.80;86.40
6609;DHT22;61468;48.79282455;9.06262200;2022-08-19T12:05:07;23.90;76.80
6609;DHT22;61468;48.79282455;9.06262200;2022-08-19T12:07:52;23.90;69.70
6609;DHT22;61468;48.79282455;9.06262200;2022-08-19T12:10:39;23.90;70.60
6609;DHT22;61468;48.79282455;9.06262200;2022-08-19T12:13:24;23.90;67.10
6609;DHT22;61468;48.79282455;9.06262200;2022-08-19T12:16:10;23.90;66.10
6609;DHT22;61468;48.79282455;9.06262200;2022-08-19T12:18:56;23.90;64.40
6609;DHT22;61468;48.79282455;9.06262200;2022-08-19T12:21:41;23.90;63.10
6609;DHT22;61468;48.79282455;9.06262200;2022-08-19T12:24:25;23.90;63.50
6609;DHT22;61468;48.79282455;9.06262200;2022-08-19T12:27:09;24.00;61.10
6609;DHT22;61468;48.79282455;9.06262200;2022-08-19T12:29:53;23.90;59.40
6609;DHT22;61468;48.79282455;9.06262200;2022-08-19T12:32:38;24.00;56.60
6609;DHT22;61468;48.79282455;9.06262200;2022-08-19T12:35:22;24.00;47.70
6609;DHT22;61468;48.79282455;9.06262200;2022-08-19T12:38:06;24.00;35.50
6609;DHT22;61468;48.79282455;9.06262200;2022-08-19T12:40:50;24.00;23.20
6609;DHT22;61468;48.79282455;9.06262200;2022-08-19T12:43:36;24.00;5.30
6609;DHT22;61468;48.79282455;9.06262200;2022-08-19T12:46:21;24.00;1.00
6609;DHT22;61468;48.79282455;9.06262200;2022-08-19T12:49:05;23.90;1.00
6609;DHT22;61468;48.79282455;9.06262200;2022-08-19T12:51:49;23.90;1.00
6609;DHT22;61468;48.79282455;9.06262200;2022-08-19T12:54:34;24.00;1.00
6609;DHT22;61468;48.79282455;9.06262200;2022-08-19T12:57:18;24.00;1.00
6609;DHT22;61468;48.79282455;9.06262200;2022-08-19T13:00:15;24.00;1.00
6609;DHT22;61468;48.79282455;9.06262200;2022-08-19T13:03:00;24.00;1.00
6609;DHT22;61468;48.79282455;9.06262200;2022-08-19T13:05:45;24.00;1.00
6609;DHT22;61468;48.79282455;9.06262200;2022-08-19T13:08:29;24.00;1.00
6609;DHT22;61468;48.79282455;9.06262200;2022-08-19T13:11:16;24.10;1.00
6609;DHT22;61468;48.79282455;9.06262200;2022-08-19T13:14:02;24.00;1.00
6609;DHT22;61468;48.79282455;9.06262200;2022-08-19T13:16:47;24.10;1.00
6609;DHT22;61468;48.79282455;9.06262200;2022-08-19T13:19:31;24.10;1.00
6609;DHT22;61468;48.79282455;9.06262200;2022-08-19T13:22:17;24.10;1.00
6609;DHT22;61468;48.79282455;9.06262200;2022-08-19T13:25:02;24.10;1.00
6609;DHT22;61468;48.79282455;9.06262200;2022-08-19T13:27:47;24.10;1.00
6609;DHT22;61468;48.79282455;9.06262200;2022-08-19T13:30:32;24.10;1.00
6609;DHT22;61468;48.79282455;9.06262200;2022-08-19T13:33:35;24.10;1.00
6609;DHT22;61468;48.79282455;9.06262200;2022-08-19T13:36:19;24.10;1.00
6609;DHT22;61468;48.79282455;9.06262200;2022-08-19T13:39:04;24.10;1.00
6609;DHT22;61468;48.79282455;9.06262200;2022-08-19T13:41:49;24.10;1.00
6609;DHT22;61468;48.79282455;9.06262200;2022-08-19T13:44:33;24.10;1.00
6609;DHT22;61468;48.79282455;9.06262200;2022-08-19T13:47:17;24.10;1.00
6609;DHT22;61468;48.79282455;9.06262200;2022-08-19T13:50:03;24.20;1.00
6609;DHT22;61468;48.79282455;9.06262200;2022-08-19T13:52:48;24.20;1.00
6609;DHT22;61468;48.79282455;9.06262200;2022-08-19T13:55:32;24.20;1.00
6609;DHT22;61468;48.79282455;9.06262200;2022-08-19T13:58:17;24.20;1.00
6609;DHT22;61468;48.79282455;9.06262200;2022-08-19T14:01:01;24.20;1.00
6609;DHT22;61468;48.79282455;9.06262200;2022-08-19T14:03:45;24.20;1.00
6609;DHT22;61468;48.79282455;9.06262200;2022-08-19T14:06:29;24.20;1.00
6609;DHT22;61468;48.79282455;9.06262200;2022-08-19T14:09:13;24.20;1.00
6609;DHT22;61468;48.79282455;9.06262200;2022-08-19T14:11:57;24.20;1.00
6609;DHT22;61468;48.79282455;9.06262200;2022-08-19T14:14:41;24.20;1.00
6609;DHT22;61468;48.79282455;9.06262200;2022-08-19T14:17:26;24.20;1.00
6609;DHT22;61468;48.79282455;9.06262200;2022-08-19T14:20:11;24.30;1.00
6609;DHT22;61468;48.79282455;9.06262200;2022-08-19T14:22:56;24.20;1.00
6609;DHT22;61468;48.79282455;9.06262200;2022-08-19T14:25:40;24.30;1.00
6609;DHT22;61468;48.79282455;9.06262200;2022-08-19T14:28:24;24.30;1.00
6609;DHT22;61468;48.79282455;9.06262200;2022-08-19T14:31:10;24.30;1.00
6609;DHT22;61468;48.79282455;9.06262200;2022-08-19T14:33:54;24.30;1.00
6609;DHT22;61468;48.79282455;9.06262200;2022-08-19T14:36:38;24.30;1.00
6609;DHT22;61468;48.79282455;9.06262200;2022-08-19T14:39:22;24.40;1.00
6609;DHT22;61468;48.79282455;9.06262200;2022-08-19T14:42:07;24.40;1.00
6609;DHT22;61468;48.79282455;9.06262200;2022-08-19T14:44:52;24.40;1.00
6609;DHT22;61468;48.79282455;9.06262200;2022-08-19T14:47:36;24.40;1.00
6609;DHT22;61468;48.79282455;9.06262200;2022-08-19T14:50:21;24.40;1.00
6609;DHT22;61468;48.79282455;9.06262200;2022-08-19T14:53:07;24.40;1.00
6609;DHT22;61468;48.79282455;9.06262200;2022-08-19T14:55:52;24.40;1.00
6609;DHT22;61468;48.79282455;9.06262200;2022-08-19T14:58:38;24.40;1.00
6609;DHT22;61468;48.79282455;9.06262200;2022-08-19T15:01:24;24.40;1.00
6609;DHT22;61468;48.79282455;9.06262200;2022-08-19T15:04:07;24.40;1.00
6609;DHT22;61468;48.79282455;9.06262200;2022-08-19T15:06:51;24.40;1.00
6609;DHT22;61468;48.79282455;9.06262200;2022-08-19T15:09:35;24.50;1.00
6609;DHT22;61468;48.79282455;9.06262200;2022-08-19T15:12:19;24.50;1.00
6609;DHT22;61468;48.79282455;9.06262200;2022-08-19T15:15:04;24.60;1.00
6609;DHT22;61468;48.79282455;9.06262200;2022-08-19T15:17:48;24.70;1.00
6609;DHT22;61468;48.79282455;9.06262200;2022-08-19T15:20:33;24.70;1.00
6609;DHT22;61468;48.79282455;9.06262200;2022-08-19T15:23:19;24.80;1.00
6609;DHT22;61468;48.79282455;9.06262200;2022-08-19T15:26:03;24.80;1.00
6609;DHT22;61468;48.79282455;9.06262200;2022-08-19T15:28:49;24.80;1.00